sensor_id;sensor_type;location;lat;lon;timestamp;pressure;altitude;pressure_sealevel;temperature;humidity
51603;BME280;37954;51.980;5.850;2023-08-20T00:03:56;101757.50;;;20.00;82.93
51603;BME280;37954;51.980;5.850;2023-08-20T00:08:08;101759.19;;;20.06;82.83
51603;BME280;37954;51.980;5.850;2023-08-20T00:12:20;101761.94;;;20.11;82.78
51603;BME280;37954;51.980;5.850;2023-08-20T00:16:33;101750.25;;;20.16;82.81
51603;BME280;37954;51.980;5.850;2023-08-20T00:20:45;101739.38;;;20.21;82.74
51603;BME280;37954;51.980;5.850;2023-08-20T00:24:57;101747.00;;;20.19;82.33
51603;BME280;37954;51.980;5.850;2023-08-20T00:29:09;101745.84;;;20.10;82.21
51603;BME280;37954;51.980;5.850;2023-08-20T00:33:20;101749.31;;;20.00;82.08
51603;BME280;37954;51.980;5.850;2023-08-20T00:37:32;101752.50;;;19.87;81.97
51603;BME280;37954;51.980;5.850;2023-08-20T00:41:45;101749.41;;;19.73;82.18
51603;BME280;37954;51.980;5.850;2023-08-20T00:45:58;101747.63;;;19.62;82.33
51603;BME280;37954;51.980;5.850;2023-08-20T00:50:11;101743.19;;;19.51;82.66
51603;BME280;37954;51.980;5.850;2023-08-20T00:54:23;101762.53;;;19.50;82.91
51603;BME280;37954;51.980;5.850;2023-08-20T00:58:35;101765.41;;;19.43;83.20
51603;BME280;37954;51.980;5.850;2023-08-20T01:02:47;101756.88;;;19.34;83.34
51603;BME280;37954;51.980;5.850;2023-08-20T01:12:02;101777.34;;;19.37;84.20
51603;BME280;37954;51.980;5.850;2023-08-20T01:16:14;101767.81;;;19.39;84.58
51603;BME280;37954;51.980;5.850;2023-08-20T01:20:30;101791.19;;;19.57;84.81
51603;BME280;37954;51.980;5.850;2023-08-20T01:29:18;101797.34;;;19.69;84.93
51603;BME280;37954;51.980;5.850;2023-08-20T01:33:30;101798.19;;;19.75;84.98
51603;BME280;37954;51.980;5.850;2023-08-20T01:37:43;101806.16;;;19.81;85.01
51603;BME280;37954;51.980;5.850;2023-08-20T01:41:55;101812.69;;;19.80;85.01
51603;BME280;37954;51.980;5.850;2023-08-20T01:46:10;101813.22;;;19.77;84.71
51603;BME280;37954;51.980;5.850;2023-08-20T01:50:24;101813.69;;;19.69;84.59
51603;BME280;37954;51.980;5.850;2023-08-20T01:54:36;101816.31;;;19.59;84.47
51603;BME280;37954;51.980;5.850;2023-08-20T01:58:48;101820.06;;;19.53;84.64
51603;BME280;37954;51.980;5.850;2023-08-20T02:03:00;101820.81;;;19.48;85.00
51603;BME280;37954;51.980;5.850;2023-08-20T02:07:11;101817.69;;;19.40;84.99
51603;BME280;37954;51.980;5.850;2023-08-20T02:11:23;101823.88;;;19.30;84.98
51603;BME280;37954;51.980;5.850;2023-08-20T02:15:35;101824.59;;;19.21;85.23
51603;BME280;37954;51.980;5.850;2023-08-20T02:19:47;101826.66;;;19.13;85.62
51603;BME280;37954;51.980;5.850;2023-08-20T02:23:58;101838.31;;;19.09;86.17
51603;BME280;37954;51.980;5.850;2023-08-20T02:28:11;101838.00;;;19.05;86.24
51603;BME280;37954;51.980;5.850;2023-08-20T02:32:23;101822.44;;;19.01;86.41
51603;BME280;37954;51.980;5.850;2023-08-20T02:36:35;101822.84;;;18.93;86.61
51603;BME280;37954;51.980;5.850;2023-08-20T02:40:46;101830.69;;;18.89;87.08
51603;BME280;37954;51.980;5.850;2023-08-20T02:44:58;101831.16;;;18.81;86.96
51603;BME280;37954;51.980;5.850;2023-08-20T02:49:10;101838.97;;;18.77;86.96
51603;BME280;37954;51.980;5.850;2023-08-20T02:53:22;101830.94;;;18.66;86.95
51603;BME280;37954;51.980;5.850;2023-08-20T02:57:34;101833.00;;;18.59;87.32
51603;BME280;37954;51.980;5.850;2023-08-20T03:01:46;101818.72;;;18.52;87.57
51603;BME280;37954;51.980;5.850;2023-08-20T03:05:58;101809.41;;;18.48;87.54
51603;BME280;37954;51.980;5.850;2023-08-20T03:10:11;101824.91;;;18.47;87.71
51603;BME280;37954;51.980;5.850;2023-08-20T03:14:23;101810.31;;;18.36;87.71
51603;BME280;37954;51.980;5.850;2023-08-20T03:18:38;101808.09;;;18.33;87.99
51603;BME280;37954;51.980;5.850;2023-08-20T03:22:50;101809.19;;;18.32;88.09
51603;BME280;37954;51.980;5.850;2023-08-20T03:27:02;101799.44;;;18.20;88.26
51603;BME280;37954;51.980;5.850;2023-08-20T03:31:14;101784.88;;;18.09;88.26
51603;BME280;37954;51.980;5.850;2023-08-20T03:35:27;101792.53;;;18.12;88.31
51603;BME280;37954;51.980;5.850;2023-08-20T03:39:40;101796.00;;;18.07;88.68
51603;BME280;37954;51.980;5.850;2023-08-20T03:43:51;101806.88;;;18.07;88.63
51603;BME280;37954;51.980;5.850;2023-08-20T03:48:03;101794.91;;;17.92;88.75
51603;BME280;37954;51.980;5.850;2023-08-20T03:52:15;101821.94;;;17.98;88.78
51603;BME280;37954;51.980;5.850;2023-08-20T03:56:27;101812.06;;;17.92;88.86
51603;BME280;37954;51.980;5.850;2023-08-20T04:00:39;101824.22;;;17.90;89.07
51603;BME280;37954;51.980;5.850;2023-08-20T04:04:51;101824.72;;;17.87;89.10
51603;BME280;37954;51.980;5.850;2023-08-20T04:09:03;101833.94;;;17.86;89.25
51603;BME280;37954;51.980;5.850;2023-08-20T04:13:15;101835.00;;;17.85;89.33
51603;BME280;37954;51.980;5.850;2023-08-20T04:17:27;101839.06;;;17.82;89.32
51603;BME280;37954;51.980;5.850;2023-08-20T04:21:39;101842.63;;;17.83;89.49
51603;BME280;37954;51.980;5.850;2023-08-20T04:25:51;101839.78;;;17.78;89.42
51603;BME280;37954;51.980;5.850;2023-08-20T04:30:03;101842.16;;;17.74;89.46
51603;BME280;37954;51.980;5.850;2023-08-20T04:34:15;101838.38;;;17.75;89.59
51603;BME280;37954;51.980;5.850;2023-08-20T04:38:31;101839.22;;;17.76;89.61
51603;BME280;37954;51.980;5.850;2023-08-20T04:42:44;101840.38;;;17.80;89.72
51603;BME280;37954;51.980;5.850;2023-08-20T04:46:57;101842.84;;;17.81;89.71
51603;BME280;37954;51.980;5.850;2023-08-20T04:51:10;101843.59;;;17.77;89.88
51603;BME280;37954;51.980;5.850;2023-08-20T04:55:22;101846.28;;;17.77;89.77
51603;BME280;37954;51.980;5.850;2023-08-20T04:59:34;101863.38;;;17.89;89.97
51603;BME280;37954;51.980;5.850;2023-08-20T05:03:46;101869.16;;;17.92;90.15
51603;BME280;37954;51.980;5.850;2023-08-20T05:07:58;101877.22;;;18.04;90.03
51603;BME280;37954;51.980;5.850;2023-08-20T05:12:10;101861.97;;;18.03;90.17
51603;BME280;37954;51.980;5.850;2023-08-20T05:16:22;101863.34;;;18.17;90.11
51603;BME280;37954;51.980;5.850;2023-08-20T05:20:35;101874.53;;;18.37;90.08
51603;BME280;37954;51.980;5.850;2023-08-20T05:24:46;101876.16;;;18.89;90.26
51603;BME280;37954;51.980;5.850;2023-08-20T05:28:59;101889.94;;;20.40;90.04
51603;BME280;37954;51.980;5.850;2023-08-20T05:33:10;101877.28;;;21.85;86.88
51603;BME280;37954;51.980;5.850;2023-08-20T05:37:24;101882.69;;;23.22;82.56
51603;BME280;37954;51.980;5.850;2023-08-20T05:41:36;101890.88;;;24.31;77.62
51603;BME280;37954;51.980;5.850;2023-08-20T05:45:47;101891.69;;;25.18;73.30
51603;BME280;37954;51.980;5.850;2023-08-20T05:50:05;101903.19;;;26.06;70.14
51603;BME280;37954;51.980;5.850;2023-08-20T05:54:18;101906.47;;;26.73;66.83
51603;BME280;37954;51.980;5.850;2023-08-20T05:58:30;101908.78;;;27.39;63.97
51603;BME280;37954;51.980;5.850;2023-08-20T06:02:42;101895.28;;;28.01;60.50
51603;BME280;37954;51.980;5.850;2023-08-20T06:06:55;101899.09;;;28.58;57.75
51603;BME280;37954;51.980;5.850;2023-08-20T06:11:07;101902.94;;;28.71;55.13
51603;BME280;37954;51.980;5.850;2023-08-20T06:15:19;101901.91;;;28.36;56.13
51603;BME280;37954;51.980;5.850;2023-08-20T06:19:31;101906.00;;;28.92;54.59
51603;BME280;37954;51.980;5.850;2023-08-20T06:23:42;101891.38;;;29.48;53.24
51603;BME280;37954;51.980;5.850;2023-08-20T06:27:55;101896.50;;;29.98;51.63
51603;BME280;37954;51.980;5.850;2023-08-20T06:32:07;101905.59;;;30.33;49.58
51603;BME280;37954;51.980;5.850;2023-08-20T06:36:19;101899.34;;;30.70;49.13
51603;BME280;37954;51.980;5.850;2023-08-20T06:40:31;101892.69;;;31.01;47.52
51603;BME280;37954;51.980;5.850;2023-08-20T06:44:43;101887.09;;;31.09;45.98
51603;BME280;37954;51.980;5.850;2023-08-20T06:48:55;101903.53;;;31.53;44.58
51603;BME280;37954;51.980;5.850;2023-08-20T06:53:07;101883.53;;;31.68;43.84
51603;BME280;37954;51.980;5.850;2023-08-20T06:57:18;101898.66;;;32.12;43.17
51603;BME280;37954;51.980;5.850;2023-08-20T07:01:30;101906.50;;;32.51;42.47
51603;BME280;37954;51.980;5.850;2023-08-20T07:05:42;101904.72;;;32.92;41.63
51603;BME280;37954;51.980;5.850;2023-08-20T07:09:54;101906.25;;;33.02;40.93
51603;BME280;37954;51.980;5.850;2023-08-20T07:14:06;101912.63;;;33.27;39.31
51603;BME280;37954;51.980;5.850;2023-08-20T07:18:18;101897.72;;;33.71;39.11
51603;BME280;37954;51.980;5.850;2023-08-20T07:22:30;101898.41;;;33.80;38.51
51603;BME280;37954;51.980;5.850;2023-08-20T07:26:42;101906.75;;;33.93;37.88
51603;BME280;37954;51.980;5.850;2023-08-20T07:30:54;101916.25;;;34.32;37.70
51603;BME280;37954;51.980;5.850;2023-08-20T07:35:06;101900.28;;;34.60;36.96
51603;BME280;37954;51.980;5.850;2023-08-20T07:39:22;101905.09;;;34.91;36.39
51603;BME280;37954;51.980;5.850;2023-08-20T07:43:34;101927.25;;;35.31;35.63
51603;BME280;37954;51.980;5.850;2023-08-20T07:47:46;101931.31;;;35.53;35.29
51603;BME280;37954;51.980;5.850;2023-08-20T07:51:58;101912.28;;;35.58;34.85
51603;BME280;37954;51.980;5.850;2023-08-20T07:56:10;101916.91;;;36.05;34.11
51603;BME280;37954;51.980;5.850;2023-08-20T08:00:33;101914.75;;;36.37;33.75
51603;BME280;37954;51.980;5.850;2023-08-20T08:05:12;101924.66;;;36.73;32.88
51603;BME280;37954;51.980;5.850;2023-08-20T08:09:30;101927.44;;;36.96;31.96
51603;BME280;37954;51.980;5.850;2023-08-20T08:13:42;101918.16;;;36.69;31.81
51603;BME280;37954;51.980;5.850;2023-08-20T08:17:54;101923.41;;;36.71;32.02
51603;BME280;37954;51.980;5.850;2023-08-20T08:22:06;101922.97;;;36.91;31.37
51603;BME280;37954;51.980;5.850;2023-08-20T08:26:18;101940.72;;;37.22;31.38
51603;BME280;37954;51.980;5.850;2023-08-20T08:30:30;101930.84;;;37.32;30.94
51603;BME280;37954;51.980;5.850;2023-08-20T08:34:42;101929.06;;;37.46;30.92
51603;BME280;37954;51.980;5.850;2023-08-20T08:38:54;101929.94;;;37.50;30.41
51603;BME280;37954;51.980;5.850;2023-08-20T08:43:06;101956.34;;;37.76;30.04
51603;BME280;37954;51.980;5.850;2023-08-20T08:47:21;101953.13;;;37.47;29.54
51603;BME280;37954;51.980;5.850;2023-08-20T08:51:33;101958.38;;;37.75;29.13
51603;BME280;37954;51.980;5.850;2023-08-20T08:55:49;101945.78;;;37.66;29.08
51603;BME280;37954;51.980;5.850;2023-08-20T09:00:01;101944.59;;;37.67;28.76
51603;BME280;37954;51.980;5.850;2023-08-20T09:04:13;101935.28;;;37.89;29.26
51603;BME280;37954;51.980;5.850;2023-08-20T09:08:27;101942.75;;;38.08;28.50
51603;BME280;37954;51.980;5.850;2023-08-20T09:12:39;101965.41;;;38.55;28.00
51603;BME280;37954;51.980;5.850;2023-08-20T09:17:01;101957.53;;;38.72;26.99
51603;BME280;37954;51.980;5.850;2023-08-20T09:21:14;101953.47;;;39.10;26.60
51603;BME280;37954;51.980;5.850;2023-08-20T09:25:26;101935.00;;;39.09;26.75
51603;BME280;37954;51.980;5.850;2023-08-20T09:29:54;101937.06;;;39.19;26.73
51603;BME280;37954;51.980;5.850;2023-08-20T09:34:12;101922.94;;;39.08;26.03
51603;BME280;37954;51.980;5.850;2023-08-20T09:38:41;101947.19;;;39.27;25.87
51603;BME280;37954;51.980;5.850;2023-08-20T09:42:54;101941.59;;;39.34;25.67
51603;BME280;37954;51.980;5.850;2023-08-20T09:47:12;101935.00;;;39.09;25.75
51603;BME280;37954;51.980;5.850;2023-08-20T09:51:25;101943.47;;;39.16;25.65
51603;BME280;37954;51.980;5.850;2023-08-20T09:55:39;101952.59;;;39.53;25.26
51603;BME280;37954;51.980;5.850;2023-08-20T09:59:53;101950.16;;;39.52;25.00
51603;BME280;37954;51.980;5.850;2023-08-20T10:04:05;101941.72;;;39.45;25.19
51603;BME280;37954;51.980;5.850;2023-08-20T10:08:18;101948.75;;;39.83;24.96
51603;BME280;37954;51.980;5.850;2023-08-20T10:12:31;101953.28;;;40.09;24.11
51603;BME280;37954;51.980;5.850;2023-08-20T10:16:43;101956.53;;;40.18;23.15
51603;BME280;37954;51.980;5.850;2023-08-20T10:20:58;101966.88;;;39.89;23.66
51603;BME280;37954;51.980;5.850;2023-08-20T10:25:25;101959.56;;;39.19;24.52
51603;BME280;37954;51.980;5.850;2023-08-20T10:29:40;101970.56;;;39.38;24.14
51603;BME280;37954;51.980;5.850;2023-08-20T10:33:56;101962.47;;;39.33;24.40
51603;BME280;37954;51.980;5.850;2023-08-20T10:38:13;101947.63;;;39.36;24.17
51603;BME280;37954;51.980;5.850;2023-08-20T10:42:30;101960.69;;;39.62;23.81
51603;BME280;37954;51.980;5.850;2023-08-20T10:46:50;101941.56;;;39.27;24.07
51603;BME280;37954;51.980;5.850;2023-08-20T10:51:13;101954.25;;;39.58;23.96
51603;BME280;37954;51.980;5.850;2023-08-20T10:55:25;101938.78;;;39.30;23.99
51603;BME280;37954;51.980;5.850;2023-08-20T10:59:40;101938.00;;;39.37;23.62
51603;BME280;37954;51.980;5.850;2023-08-20T11:03:52;101955.09;;;39.69;23.49
51603;BME280;37954;51.980;5.850;2023-08-20T11:08:04;101953.22;;;39.91;22.82
51603;BME280;37954;51.980;5.850;2023-08-20T11:12:20;101962.63;;;39.51;22.52
51603;BME280;37954;51.980;5.850;2023-08-20T11:16:36;101950.03;;;39.34;23.01
51603;BME280;37954;51.980;5.850;2023-08-20T11:20:48;101951.41;;;39.03;23.31
51603;BME280;37954;51.980;5.850;2023-08-20T11:25:00;101961.16;;;39.16;22.89
51603;BME280;37954;51.980;5.850;2023-08-20T11:29:14;101937.09;;;39.22;23.29
51603;BME280;37954;51.980;5.850;2023-08-20T11:33:28;101961.34;;;39.41;23.46
51603;BME280;37954;51.980;5.850;2023-08-20T11:37:40;101941.53;;;39.23;22.68
51603;BME280;37954;51.980;5.850;2023-08-20T11:41:52;101951.03;;;39.05;22.84
51603;BME280;37954;51.980;5.850;2023-08-20T11:46:04;101940.13;;;38.55;23.15
51603;BME280;37954;51.980;5.850;2023-08-20T11:50:20;101937.13;;;38.41;23.97
51603;BME280;37954;51.980;5.850;2023-08-20T11:54:32;101945.00;;;38.28;23.78
51603;BME280;37954;51.980;5.850;2023-08-20T11:58:49;101938.38;;;38.44;23.37
51603;BME280;37954;51.980;5.850;2023-08-20T12:03:01;101925.63;;;38.53;23.47
51603;BME280;37954;51.980;5.850;2023-08-20T12:07:15;101927.38;;;38.31;23.28
51603;BME280;37954;51.980;5.850;2023-08-20T12:11:28;101929.63;;;38.15;23.73
51603;BME280;37954;51.980;5.850;2023-08-20T12:15:39;101913.94;;;37.81;24.65
51603;BME280;37954;51.980;5.850;2023-08-20T12:19:51;101912.19;;;37.69;24.62
51603;BME280;37954;51.980;5.850;2023-08-20T12:24:03;101914.59;;;37.44;24.99
51603;BME280;37954;51.980;5.850;2023-08-20T12:28:15;101906.84;;;37.34;24.62
51603;BME280;37954;51.980;5.850;2023-08-20T12:32:27;101896.22;;;36.71;24.82
51603;BME280;37954;51.980;5.850;2023-08-20T12:36:39;101900.56;;;36.26;25.71
51603;BME280;37954;51.980;5.850;2023-08-20T12:40:51;101899.06;;;35.75;26.74
51603;BME280;37954;51.980;5.850;2023-08-20T12:45:04;101904.53;;;35.33;26.92
51603;BME280;37954;51.980;5.850;2023-08-20T12:49:16;101902.91;;;35.00;27.55
51603;BME280;37954;51.980;5.850;2023-08-20T12:53:28;101905.03;;;34.60;28.10
51603;BME280;37954;51.980;5.850;2023-08-20T12:57:58;101906.28;;;34.46;28.12
51603;BME280;37954;51.980;5.850;2023-08-20T13:02:10;101908.47;;;34.25;28.70
51603;BME280;37954;51.980;5.850;2023-08-20T13:06:22;101913.94;;;33.94;29.08
51603;BME280;37954;51.980;5.850;2023-08-20T13:10:34;101912.94;;;33.74;29.53
51603;BME280;37954;51.980;5.850;2023-08-20T13:14:46;101913.91;;;33.53;30.03
51603;BME280;37954;51.980;5.850;2023-08-20T13:18:58;101902.19;;;33.24;30.71
51603;BME280;37954;51.980;5.850;2023-08-20T13:23:10;101911.72;;;33.35;30.58
51603;BME280;37954;51.980;5.850;2023-08-20T13:27:22;101912.41;;;33.07;30.59
51603;BME280;37954;51.980;5.850;2023-08-20T13:31:35;101907.91;;;32.70;31.22
51603;BME280;37954;51.980;5.850;2023-08-20T13:35:48;101909.16;;;32.60;31.50
51603;BME280;37954;51.980;5.850;2023-08-20T13:40:00;101910.28;;;32.14;31.67
51603;BME280;37954;51.980;5.850;2023-08-20T13:44:12;101904.66;;;32.02;32.03
51603;BME280;37954;51.980;5.850;2023-08-20T13:48:23;101912.25;;;31.93;31.83
51603;BME280;37954;51.980;5.850;2023-08-20T13:52:35;101911.09;;;31.94;32.41
51603;BME280;37954;51.980;5.850;2023-08-20T13:56:47;101895.38;;;31.98;32.96
51603;BME280;37954;51.980;5.850;2023-08-20T14:00:59;101910.59;;;32.12;32.65
51603;BME280;37954;51.980;5.850;2023-08-20T14:05:11;101908.78;;;31.96;33.14
51603;BME280;37954;51.980;5.850;2023-08-20T14:09:22;101898.34;;;31.93;32.84
51603;BME280;37954;51.980;5.850;2023-08-20T14:13:34;101890.09;;;31.84;33.10
51603;BME280;37954;51.980;5.850;2023-08-20T14:17:46;101891.09;;;31.79;33.22
51603;BME280;37954;51.980;5.850;2023-08-20T14:21:58;101895.66;;;31.84;33.60
51603;BME280;37954;51.980;5.850;2023-08-20T14:26:10;101894.00;;;31.62;33.53
51603;BME280;37954;51.980;5.850;2023-08-20T14:30:22;101893.91;;;31.50;33.32
51603;BME280;37954;51.980;5.850;2023-08-20T14:34:33;101886.63;;;31.37;33.36
51603;BME280;37954;51.980;5.850;2023-08-20T14:38:45;101894.13;;;31.16;33.68
51603;BME280;37954;51.980;5.850;2023-08-20T14:42:57;101900.94;;;31.18;34.02
51603;BME280;37954;51.980;5.850;2023-08-20T14:47:09;101899.00;;;31.10;34.79
51603;BME280;37954;51.980;5.850;2023-08-20T14:51:21;101897.09;;;31.02;34.41
51603;BME280;37954;51.980;5.850;2023-08-20T14:55:33;101882.25;;;30.98;34.54
51603;BME280;37954;51.980;5.850;2023-08-20T14:59:45;101862.59;;;30.82;34.77
51603;BME280;37954;51.980;5.850;2023-08-20T15:03:57;101886.44;;;30.66;34.42
51603;BME280;37954;51.980;5.850;2023-08-20T15:08:09;101876.53;;;30.48;34.39
51603;BME280;37954;51.980;5.850;2023-08-20T15:12:20;101876.38;;;30.44;34.73
51603;BME280;37954;51.980;5.850;2023-08-20T15:16:32;101877.19;;;30.44;35.27
51603;BME280;37954;51.980;5.850;2023-08-20T15:20:44;101876.53;;;30.48;35.42
51603;BME280;37954;51.980;5.850;2023-08-20T15:24:55;101885.19;;;30.55;35.13
51603;BME280;37954;51.980;5.850;2023-08-20T15:29:07;101877.03;;;30.58;35.33
51603;BME280;37954;51.980;5.850;2023-08-20T15:33:19;101876.00;;;30.71;35.13
51603;BME280;37954;51.980;5.850;2023-08-20T15:37:31;101873.19;;;30.80;35.13
51603;BME280;37954;51.980;5.850;2023-08-20T15:41:44;101884.81;;;30.73;35.09
51603;BME280;37954;51.980;5.850;2023-08-20T15:45:57;101872.75;;;30.52;35.96
51603;BME280;37954;51.980;5.850;2023-08-20T15:50:09;101871.50;;;30.41;36.20
51603;BME280;37954;51.980;5.850;2023-08-20T15:54:21;101870.53;;;30.37;36.55
51603;BME280;37954;51.980;5.850;2023-08-20T15:58:32;101880.78;;;30.36;36.10
51603;BME280;37954;51.980;5.850;2023-08-20T16:02:45;101877.06;;;30.24;36.77
51603;BME280;37954;51.980;5.850;2023-08-20T16:06:57;101857.69;;;29.89;36.43
51603;BME280;37954;51.980;5.850;2023-08-20T16:11:09;101846.91;;;29.62;36.99
51603;BME280;37954;51.980;5.850;2023-08-20T16:15:21;101841.38;;;29.53;37.28
51603;BME280;37954;51.980;5.850;2023-08-20T16:19:33;101864.31;;;29.45;37.35
51603;BME280;37954;51.980;5.850;2023-08-20T16:23:45;101860.09;;;29.48;37.41
51603;BME280;37954;51.980;5.850;2023-08-20T16:27:56;101859.22;;;29.30;38.79
51603;BME280;37954;51.980;5.850;2023-08-20T16:32:08;101855.28;;;29.14;38.74
51603;BME280;37954;51.980;5.850;2023-08-20T16:36:20;101873.78;;;28.96;38.89
51603;BME280;37954;51.980;5.850;2023-08-20T16:40:32;101859.31;;;28.68;39.76
51603;BME280;37954;51.980;5.850;2023-08-20T16:44:44;101873.56;;;28.53;40.04
51603;BME280;37954;51.980;5.850;2023-08-20T16:48:59;101873.69;;;28.48;40.64
51603;BME280;37954;51.980;5.850;2023-08-20T16:53:11;101858.00;;;28.34;41.31
51603;BME280;37954;51.980;5.850;2023-08-20T16:57:23;101859.63;;;28.35;41.24
51603;BME280;37954;51.980;5.850;2023-08-20T17:01:34;101867.13;;;28.35;41.21
51603;BME280;37954;51.980;5.850;2023-08-20T17:05:46;101865.66;;;28.37;41.52
51603;BME280;37954;51.980;5.850;2023-08-20T17:09:58;101870.19;;;28.33;41.56
51603;BME280;37954;51.980;5.850;2023-08-20T17:14:10;101875.53;;;28.30;41.75
51603;BME280;37954;51.980;5.850;2023-08-20T17:18:23;101856.03;;;28.13;41.87
51603;BME280;37954;51.980;5.850;2023-08-20T17:22:35;101862.44;;;27.99;41.98
51603;BME280;37954;51.980;5.850;2023-08-20T17:26:47;101866.56;;;27.88;42.52
51603;BME280;37954;51.980;5.850;2023-08-20T17:31:02;101866.00;;;27.78;42.93
51603;BME280;37954;51.980;5.850;2023-08-20T17:35:14;101873.91;;;27.70;43.21
51603;BME280;37954;51.980;5.850;2023-08-20T17:39:26;101859.56;;;27.55;43.72
51603;BME280;37954;51.980;5.850;2023-08-20T17:43:38;101869.22;;;27.44;43.96
51603;BME280;37954;51.980;5.850;2023-08-20T17:47:50;101869.63;;;27.37;44.07
51603;BME280;37954;51.980;5.850;2023-08-20T17:52:02;101852.41;;;27.18;44.40
51603;BME280;37954;51.980;5.850;2023-08-20T17:56:13;101871.28;;;27.24;44.40
51603;BME280;37954;51.980;5.850;2023-08-20T18:00:25;101868.25;;;27.12;44.57
51603;BME280;37954;51.980;5.850;2023-08-20T18:04:37;101869.06;;;26.99;44.03
51603;BME280;37954;51.980;5.850;2023-08-20T18:08:49;101873.78;;;26.98;44.04
51603;BME280;37954;51.980;5.850;2023-08-20T18:13:01;101866.47;;;26.89;44.13
51603;BME280;37954;51.980;5.850;2023-08-20T18:17:14;101876.06;;;26.78;44.43
51603;BME280;37954;51.980;5.850;2023-08-20T18:21:26;101875.53;;;26.76;44.74
51603;BME280;37954;51.980;5.850;2023-08-20T18:25:38;101877.56;;;26.70;44.78
51603;BME280;37954;51.980;5.850;2023-08-20T18:29:50;101902.50;;;26.65;45.38
51603;BME280;37954;51.980;5.850;2023-08-20T18:34:02;101879.69;;;26.46;45.65
51603;BME280;37954;51.980;5.850;2023-08-20T18:38:36;101885.50;;;26.44;45.54
51603;BME280;37954;51.980;5.850;2023-08-20T18:42:52;101879.31;;;26.33;45.87
51603;BME280;37954;51.980;5.850;2023-08-20T18:47:04;101906.28;;;26.37;46.12
51603;BME280;37954;51.980;5.850;2023-08-20T18:51:21;101906.22;;;26.23;46.40
51603;BME280;37954;51.980;5.850;2023-08-20T18:55:33;101910.97;;;26.17;46.41
51603;BME280;37954;51.980;5.850;2023-08-20T18:59:45;101914.34;;;26.14;46.20
51603;BME280;37954;51.980;5.850;2023-08-20T19:03:56;101908.75;;;26.00;46.43
51603;BME280;37954;51.980;5.850;2023-08-20T19:08:09;101897.69;;;25.87;46.78
51603;BME280;37954;51.980;5.850;2023-08-20T19:12:20;101905.09;;;25.67;47.10
51603;BME280;37954;51.980;5.850;2023-08-20T19:16:32;101913.84;;;25.51;47.32
51603;BME280;37954;51.980;5.850;2023-08-20T19:20:53;101931.06;;;25.38;47.51
51603;BME280;37954;51.980;5.850;2023-08-20T19:25:05;101932.34;;;25.21;48.17
51603;BME280;37954;51.980;5.850;2023-08-20T19:29:17;101933.00;;;25.13;48.77
51603;BME280;37954;51.980;5.850;2023-08-20T19:33:31;101916.03;;;25.06;48.86
51603;BME280;37954;51.980;5.850;2023-08-20T19:37:44;101929.78;;;25.06;49.06
51603;BME280;37954;51.980;5.850;2023-08-20T19:41:56;101946.03;;;25.03;49.11
51603;BME280;37954;51.980;5.850;2023-08-20T19:46:08;101939.22;;;24.95;49.44
51603;BME280;37954;51.980;5.850;2023-08-20T19:50:20;101946.94;;;24.93;50.06
51603;BME280;37954;51.980;5.850;2023-08-20T19:54:32;101951.38;;;24.89;50.40
51603;BME280;37954;51.980;5.850;2023-08-20T19:58:44;101951.25;;;24.75;50.77
51603;BME280;37954;51.980;5.850;2023-08-20T20:02:55;101940.06;;;24.61;51.28
51603;BME280;37954;51.980;5.850;2023-08-20T20:07:09;101947.06;;;24.49;52.04
51603;BME280;37954;51.980;5.850;2023-08-20T20:11:33;101950.47;;;24.36;52.37
51603;BME280;37954;51.980;5.850;2023-08-20T20:15:47;101952.97;;;24.27;52.93
51603;BME280;37954;51.980;5.850;2023-08-20T20:19:59;101957.41;;;24.18;52.98
51603;BME280;37954;51.980;5.850;2023-08-20T20:24:11;101960.22;;;24.08;53.24
51603;BME280;37954;51.980;5.850;2023-08-20T20:28:23;101964.66;;;24.04;53.33
51603;BME280;37954;51.980;5.850;2023-08-20T20:32:35;101966.06;;;23.96;53.53
51603;BME280;37954;51.980;5.850;2023-08-20T20:36:48;101959.56;;;23.82;53.47
51603;BME280;37954;51.980;5.850;2023-08-20T20:40:59;101983.97;;;23.83;53.38
51603;BME280;37954;51.980;5.850;2023-08-20T20:45:11;101978.22;;;23.80;53.75
51603;BME280;37954;51.980;5.850;2023-08-20T20:49:23;101956.81;;;23.77;54.08
51603;BME280;37954;51.980;5.850;2023-08-20T20:53:36;101976.03;;;23.82;54.07
51603;BME280;37954;51.980;5.850;2023-08-20T20:57:48;101978.47;;;23.88;54.25
51603;BME280;37954;51.980;5.850;2023-08-20T21:02:00;101977.88;;;23.91;54.31
51603;BME280;37954;51.980;5.850;2023-08-20T21:06:12;101989.44;;;23.88;54.70
51603;BME280;37954;51.980;5.850;2023-08-20T21:10:23;101992.41;;;23.97;54.43
51603;BME280;37954;51.980;5.850;2023-08-20T21:14:35;101976.50;;;23.94;54.97
51603;BME280;37954;51.980;5.850;2023-08-20T21:18:47;101991.84;;;24.00;54.68
51603;BME280;37954;51.980;5.850;2023-08-20T21:22:59;101977.59;;;23.93;54.94
51603;BME280;37954;51.980;5.850;2023-08-20T21:27:10;101996.00;;;23.92;55.06
51603;BME280;37954;51.980;5.850;2023-08-20T21:31:22;101995.25;;;23.82;55.53
51603;BME280;37954;51.980;5.850;2023-08-20T21:35:34;102006.22;;;23.82;55.42
51603;BME280;37954;51.980;5.850;2023-08-20T21:39:46;102003.22;;;23.73;55.50
51603;BME280;37954;51.980;5.850;2023-08-20T21:43:57;102006.56;;;23.70;55.75
51603;BME280;37954;51.980;5.850;2023-08-20T21:48:09;102012.06;;;23.60;56.03
51603;BME280;37954;51.980;5.850;2023-08-20T21:52:21;102012.88;;;23.55;56.24
51603;BME280;37954;51.980;5.850;2023-08-20T21:56:33;102009.59;;;23.48;56.71
51603;BME280;37954;51.980;5.850;2023-08-20T22:00:45;101997.84;;;23.33;56.60
51603;BME280;37954;51.980;5.850;2023-08-20T22:05:20;102004.16;;;23.28;57.38
51603;BME280;37954;51.980;5.850;2023-08-20T22:09:32;102003.91;;;23.14;57.57
51603;BME280;37954;51.980;5.850;2023-08-20T22:13:44;101994.63;;;23.00;58.02